Time;durP1;ratioP1;P1;durP2;ratioP2;P2;SDS_P1;SDS_P2;PMS_P1;PMS_P2;Temp;Humidity;BMP_temperature;BMP_pressure;BME280_temperature;BME280_humidity;BME280_pressure;Samples;Min_cycle;Max_cycle;Signal;HPM_P1;HPM_P2
2022/09/18 00:02:03;;;;;;;2.63;0.63;;;;;;;8.09;89.36;98058.28;5040194;28;20046;-58
2022/09/18 00:04:48;;;;;;;0.80;0.60;;;;;;;7.97;90.28;98059.94;5039301;28;20045;-57
2022/09/18 00:07:32;;;;;;;1.25;0.50;;;;;;;7.91;90.71;98058.63;5052939;28;20476;-57
2022/09/18 00:10:17;;;;;;;1.17;0.50;;;;;;;7.79;91.65;98062.88;5042481;28;20364;-57
2022/09/18 00:13:02;;;;;;;1.50;0.40;;;;;;;7.88;91.72;98066.66;5046774;28;20052;-59
2022/09/18 00:15:54;;;;;;;1.00;0.55;;;;;;;7.96;91.67;98066.97;5051837;28;20041;-60
2022/09/18 00:18:40;;;;;;;2.53;0.70;;;;;;;7.82;92.02;98070.50;5048003;28;20037;-58
2022/09/18 00:21:25;;;;;;;1.63;0.50;;;;;;;7.77;93.00;98072.56;5050394;28;20140;-58
2022/09/18 00:24:10;;;;;;;1.00;0.50;;;;;;;7.65;93.49;98074.25;5041316;28;20044;-59
2022/09/18 00:26:55;;;;;;;0.70;0.40;;;;;;;7.61;93.76;98075.41;5045980;28;20041;-53
2022/09/18 00:29:40;;;;;;;1.20;0.40;;;;;;;7.54;94.00;98076.75;5053443;28;20476;-60
2022/09/18 00:32:24;;;;;;;2.17;0.73;;;;;;;7.58;94.40;98073.00;5039620;28;20041;-56
2022/09/18 00:35:09;;;;;;;0.80;0.50;;;;;;;7.67;94.77;98084.59;5075276;28;20060;-62
2022/09/18 00:37:54;;;;;;;2.42;0.60;;;;;;;7.69;94.34;98086.13;5049193;28;20041;-56
2022/09/18 00:40:39;;;;;;;1.42;0.70;;;;;;;7.62;95.24;98085.72;5034688;28;20059;-59
2022/09/18 00:43:26;;;;;;;2.10;0.80;;;;;;;7.63;95.10;98086.56;5051403;28;20426;-60
2022/09/18 00:46:13;;;;;;;1.30;0.52;;;;;;;7.64;95.59;98093.44;5057915;28;20610;-57
2022/09/18 00:49:28;;;;;;;2.47;0.73;;;;;;;7.58;96.27;98101.66;5047559;28;20048;-55
2022/09/18 00:52:14;;;;;;;3.20;0.60;;;;;;;7.57;96.54;98102.63;5049828;28;20049;-57
2022/09/18 00:55:04;;;;;;;0.73;0.55;;;;;;;7.66;96.56;98088.97;5044175;28;20617;-56
2022/09/18 00:57:53;;;;;;;1.00;0.63;;;;;;;7.79;95.81;98095.94;5034327;28;20519;-59
2022/09/18 01:00:38;;;;;;;1.02;0.47;;;;;;;7.79;95.66;98090.72;5027698;28;20041;-57
2022/09/18 01:03:23;;;;;;;1.92;0.80;;;;;;;7.90;95.61;98096.03;5024776;28;20087;-56
2022/09/18 01:06:26;;;;;;;0.98;0.60;;;;;;;7.89;95.35;98097.84;5037591;28;20571;-57
2022/09/18 01:09:23;;;;;;;1.60;0.60;;;;;;;7.91;95.48;98094.28;5050942;28;20076;-58
2022/09/18 01:12:33;;;;;;;1.90;0.60;;;;;;;7.89;95.58;98097.84;5028190;28;20084;-59
2022/09/18 01:15:38;;;;;;;1.15;0.50;;;;;;;7.91;95.29;98087.31;5034026;28;20052;-59
2022/09/18 01:18:35;;;;;;;1.50;0.65;;;;;;;7.89;95.47;98094.38;5040914;28;20187;-55
2022/09/18 01:21:34;;;;;;;1.50;0.68;;;;;;;7.87;95.40;98098.88;5028021;28;20913;-55
2022/09/18 01:24:44;;;;;;;2.25;0.60;;;;;;;7.84;95.22;98096.47;5054617;28;20523;-55
2022/09/18 01:27:51;;;;;;;0.70;0.50;;;;;;;7.91;95.67;98099.50;5033563;28;20461;-56
2022/09/18 01:30:41;;;;;;;1.48;0.40;;;;;;;7.91;95.22;98102.94;5043294;28;20049;-57
2022/09/18 01:33:58;;;;;;;0.85;0.50;;;;;;;7.86;95.65;98092.00;5040725;28;20040;-57
2022/09/18 01:36:48;;;;;;;1.05;0.60;;;;;;;7.73;95.47;98098.06;5040349;28;20444;-58
2022/09/18 01:39:42;;;;;;;1.75;0.57;;;;;;;7.64;96.38;98096.88;5040509;28;20507;-55
2022/09/18 01:42:29;;;;;;;1.35;0.40;;;;;;;7.65;96.49;98089.91;5044568;28;20476;-57
2022/09/18 01:45:20;;;;;;;3.25;0.50;;;;;;;7.63;95.89;98095.22;5046936;28;20049;-59
2022/09/18 01:48:07;;;;;;;1.73;0.40;;;;;;;7.67;95.21;98113.28;5038374;28;20040;-58
2022/09/18 01:51:04;;;;;;;0.65;0.38;;;;;;;7.68;94.81;98112.31;5049158;28;20464;-56
2022/09/18 01:53:57;;;;;;;1.27;0.40;;;;;;;7.60;95.19;98115.44;5042664;28;20057;-55
2022/09/18 01:56:47;;;;;;;1.30;0.45;;;;;;;7.66;94.88;98122.00;5040103;28;20049;-58
2022/09/18 01:59:38;;;;;;;2.42;0.32;;;;;;;7.63;94.04;98112.63;5041326;28;20067;-57
2022/09/18 02:02:53;;;;;;;0.63;0.40;;;;;;;7.63;94.32;98117.84;5053299;28;20033;-56
2022/09/18 02:05:51;;;;;;;0.70;0.32;;;;;;;7.60;94.85;98116.28;5043005;28;20129;-55
2022/09/18 02:08:49;;;;;;;1.30;0.47;;;;;;;7.59;95.53;98119.81;5040674;28;20124;-57
2022/09/18 02:11:42;;;;;;;1.05;0.50;;;;;;;7.62;95.66;98118.78;5046382;28;20048;-52
2022/09/18 02:14:34;;;;;;;0.60;0.32;;;;;;;7.57;95.83;98119.09;5046555;28;20056;-58
2022/09/18 02:17:35;;;;;;;0.82;0.40;;;;;;;7.52;96.36;98121.19;5060907;28;20048;-57
2022/09/18 02:20:25;;;;;;;0.88;0.40;;;;;;;7.48;96.64;98128.34;5045636;28;20037;-57
2022/09/18 02:23:12;;;;;;;1.75;0.30;;;;;;;7.35;97.14;98120.50;5049855;28;20548;-57
2022/09/18 02:26:00;;;;;;;0.52;0.40;;;;;;;7.34;97.32;98131.03;5049304;28;20459;-58
2022/09/18 02:28:48;;;;;;;0.52;0.40;;;;;;;7.45;96.76;98130.31;5048818;28;20532;-56
2022/09/18 02:31:33;;;;;;;1.33;0.30;;;;;;;7.37;96.74;98139.50;5049115;28;20041;-58
2022/09/18 02:34:19;;;;;;;0.50;0.40;;;;;;;7.43;96.30;98140.00;5031689;28;20038;-58
2022/09/18 02:37:40;;;;;;;0.50;0.30;;;;;;;7.38;96.32;98138.56;5029258;28;20041;-56
2022/09/18 02:40:27;;;;;;;1.13;0.40;;;;;;;7.46;95.94;98132.81;5028260;28;20072;-56
2022/09/18 02:43:24;;;;;;;0.77;0.60;;;;;;;7.51;95.58;98128.16;5041738;28;20043;-54
2022/09/18 02:46:37;;;;;;;0.47;0.38;;;;;;;7.48;95.54;98130.13;5025643;28;20046;-56
2022/09/18 02:49:38;;;;;;;1.35;0.30;;;;;;;7.44;96.45;98126.88;5023956;28;20118;-58
2022/09/18 02:52:28;;;;;;;2.15;0.45;;;;;;;7.42;96.57;98126.16;5053614;28;20068;-57
2022/09/18 02:55:20;;;;;;;2.92;0.43;;;;;;;7.34;97.27;98129.28;5038589;28;20117;-58
2022/09/18 02:58:14;;;;;;;1.23;0.50;;;;;;;7.39;97.57;98128.97;5046457;28;20063;-54
2022/09/18 03:01:02;;;;;;;0.70;0.47;;;;;;;7.35;97.62;98132.69;5048194;28;20045;-56
2022/09/18 03:03:49;;;;;;;0.52;0.30;;;;;;;7.37;97.61;98123.88;5044796;28;20065;-53
2022/09/18 03:06:36;;;;;;;1.02;0.40;;;;;;;7.43;97.20;98129.56;5073956;28;20071;-56
2022/09/18 03:09:21;;;;;;;0.75;0.47;;;;;;;7.49;96.98;98130.00;5062803;28;20079;-57
2022/09/18 03:12:07;;;;;;;1.88;0.60;;;;;;;7.59;96.05;98132.03;5061213;28;20743;-58
2022/09/18 03:14:56;;;;;;;0.60;0.32;;;;;;;7.61;96.48;98124.94;5044460;28;20491;-55
2022/09/18 03:17:41;;;;;;;0.88;0.32;;;;;;;7.74;95.44;98130.16;5061348;28;20028;-58
2022/09/18 03:20:26;;;;;;;0.82;0.40;;;;;;;7.82;94.81;98127.03;5032609;28;20756;-56
2022/09/18 03:23:11;;;;;;;0.82;0.40;;;;;;;7.92;94.10;98125.47;5046853;28;20593;-57
2022/09/18 03:25:55;;;;;;;1.70;0.40;;;;;;;7.87;93.91;98144.06;5073970;28;20057;-55
2022/09/18 03:28:40;;;;;;;0.82;0.40;;;;;;;7.93;93.81;98149.78;5041307;28;20049;-59
2022/09/18 03:31:26;;;;;;;0.80;0.28;;;;;;;7.98;93.26;98137.28;5030557;28;20084;-54
2022/09/18 03:34:11;;;;;;;2.80;0.50;;;;;;;7.96;93.30;98144.38;5034645;28;20455;-57
2022/09/18 03:36:56;;;;;;;0.65;0.57;;;;;;;7.98;93.83;98148.53;5051573;28;20128;-55
2022/09/18 03:39:41;;;;;;;1.15;0.40;;;;;;;7.99;93.93;98165.88;5037827;28;21034;-58
2022/09/18 03:42:30;;;;;;;0.50;0.40;;;;;;;7.98;94.27;98153.75;5037580;28;20514;-58
2022/09/18 03:45:17;;;;;;;4.32;0.50;;;;;;;7.97;94.73;98165.13;5038687;28;20048;-59
2022/09/18 03:48:04;;;;;;;1.10;0.40;;;;;;;8.15;95.89;98159.59;5049206;28;20462;-56
2022/09/18 03:50:49;;;;;;;1.67;0.63;;;;;;;8.11;95.74;98163.38;5049648;28;20392;-54
2022/09/18 03:53:34;;;;;;;0.60;0.30;;;;;;;8.10;95.40;98159.91;5044139;28;20129;-54
2022/09/18 03:56:39;;;;;;;0.35;0.30;;;;;;;8.09;95.48;98167.84;5036001;28;20107;-53
2022/09/18 03:59:43;;;;;;;0.88;0.40;;;;;;;8.08;96.31;98158.38;5044344;28;20065;-56
2022/09/18 04:02:53;;;;;;;1.27;0.50;;;;;;;7.96;95.92;98160.03;5047193;28;20049;-54
2022/09/18 04:05:57;;;;;;;1.65;0.50;;;;;;;7.92;96.72;98161.16;5037547;28;20037;-54
2022/09/18 04:09:00;;;;;;;0.90;0.30;;;;;;;7.95;96.67;98156.56;5049785;28;20502;-58
2022/09/18 04:11:54;;;;;;;1.40;0.50;;;;;;;7.94;96.69;98156.66;5033730;28;20041;-55
2022/09/18 04:14:39;;;;;;;0.43;0.30;;;;;;;7.87;97.10;98164.91;5048675;28;20136;-60
2022/09/18 04:17:24;;;;;;;0.43;0.30;;;;;;;7.80;97.25;98165.44;5061170;28;20094;-54
2022/09/18 04:20:08;;;;;;;2.00;0.80;;;;;;;7.75;97.75;98161.34;5047959;28;20045;-56
2022/09/18 04:22:54;;;;;;;0.80;0.50;;;;;;;7.74;97.54;98156.22;5048376;28;20041;-60
2022/09/18 04:25:41;;;;;;;0.55;0.35;;;;;;;7.61;98.41;98156.22;5047131;28;20094;-57
2022/09/18 04:28:26;;;;;;;2.95;0.60;;;;;;;7.54;98.78;98157.56;5050562;28;20093;-57
2022/09/18 04:31:11;;;;;;;0.50;0.30;;;;;;;7.49;99.40;98163.91;5049860;28;20043;-57
2022/09/18 04:33:56;;;;;;;2.60;0.40;;;;;;;7.42;99.80;98157.44;5050393;28;20056;-54
2022/09/18 04:36:41;;;;;;;1.40;0.50;;;;;;;7.46;99.72;98160.69;5045724;28;20068;-55
2022/09/18 04:39:27;;;;;;;2.40;0.30;;;;;;;7.42;99.91;98151.38;5044744;28;20116;-56
2022/09/18 04:42:15;;;;;;;0.80;0.43;;;;;;;7.39;100.00;98155.84;5052625;28;20041;-56
2022/09/18 04:45:03;;;;;;;0.60;0.25;;;;;;;7.45;99.74;98159.84;5074525;28;20705;-55
2022/09/18 04:47:48;;;;;;;1.02;0.40;;;;;;;7.52;99.80;98157.66;5072285;28;20052;-59
2022/09/18 04:50:37;;;;;;;1.50;0.60;;;;;;;7.54;99.33;98162.78;5055145;28;20061;-57
2022/09/18 04:53:34;;;;;;;0.40;0.30;;;;;;;7.62;99.17;98170.94;5049450;28;20044;-54
2022/09/18 04:56:19;;;;;;;0.57;0.30;;;;;;;7.64;98.60;98166.44;5085100;28;20125;-54
2022/09/18 04:59:07;;;;;;;0.60;0.28;;;;;;;7.59;98.83;98171.97;5034261;28;20033;-56
2022/09/18 05:01:55;;;;;;;2.58;0.47;;;;;;;7.58;98.84;98177.28;5044304;28;20064;-56
2022/09/18 05:04:40;;;;;;;1.08;0.30;;;;;;;7.43;99.12;98179.94;5047659;28;20044;-57
2022/09/18 05:07:34;;;;;;;0.50;0.17;;;;;;;7.54;98.67;98183.63;5066039;28;20086;-57
2022/09/18 05:10:19;;;;;;;1.00;0.38;;;;;;;7.57;97.73;98175.63;5026785;28;20044;-58
2022/09/18 05:13:04;;;;;;;1.05;0.32;;;;;;;7.39;98.17;98179.31;5058196;28;20092;-58
2022/09/18 05:15:54;;;;;;;1.30;0.40;;;;;;;7.47;97.85;98180.59;5046500;28;20037;-58
2022/09/18 05:18:40;;;;;;;0.65;0.32;;;;;;;7.67;95.97;98188.88;5049436;28;20526;-54
2022/09/18 05:21:24;;;;;;;0.35;0.20;;;;;;;7.95;94.73;98193.09;5038775;28;20038;-57
2022/09/18 05:24:09;;;;;;;1.40;0.35;;;;;;;8.04;93.99;98194.25;5049858;28;20044;-57
2022/09/18 05:26:54;;;;;;;0.90;0.30;;;;;;;8.05;93.72;98202.91;5044233;28;20357;-54
2022/09/18 05:29:40;;;;;;;0.73;0.20;;;;;;;8.09;92.92;98199.16;5050172;28;20041;-56
2022/09/18 05:32:56;;;;;;;2.05;0.20;;;;;;;8.20;91.92;98196.66;5032704;28;20099;-56
2022/09/18 05:35:41;;;;;;;1.10;0.40;;;;;;;8.25;92.61;98199.78;5075617;28;20032;-55
2022/09/18 05:38:26;;;;;;;2.92;0.30;;;;;;;8.30;91.31;98196.88;5064320;28;20049;-56
2022/09/18 05:41:12;;;;;;;2.72;0.40;;;;;;;8.57;90.20;98190.72;5049147;28;20512;-56
2022/09/18 05:44:00;;;;;;;0.57;0.35;;;;;;;8.67;89.63;98205.72;5042310;28;20045;-54
2022/09/18 05:46:48;;;;;;;1.45;0.30;;;;;;;8.95;87.73;98209.88;5044640;28;20059;-56
2022/09/18 05:49:33;;;;;;;1.70;0.30;;;;;;;8.93;87.21;98208.28;5055936;28;20045;-57
2022/09/18 05:52:18;;;;;;;2.58;0.40;;;;;;;9.04;86.54;98208.34;5022036;28;20399;-59
2022/09/18 05:55:03;;;;;;;2.05;0.30;;;;;;;8.97;86.31;98205.38;5053274;28;20085;-56
2022/09/18 05:57:51;;;;;;;0.93;0.20;;;;;;;9.09;86.28;98216.72;5041166;28;20033;-57
2022/09/18 06:00:35;;;;;;;1.02;0.30;;;;;;;9.05;85.53;98217.88;5071731;28;20049;-57
2022/09/18 06:03:27;;;;;;;0.40;0.20;;;;;;;9.17;84.79;98216.16;5047831;28;20069;-58
2022/09/18 06:06:12;;;;;;;2.72;0.30;;;;;;;9.36;85.93;98207.84;5058304;28;20040;-58
2022/09/18 06:08:56;;;;;;;1.08;0.30;;;;;;;9.42;84.79;98209.16;5047666;28;20439;-59
2022/09/18 06:11:45;;;;;;;1.00;0.40;;;;;;;9.51;84.62;98212.91;5046507;28;20083;-56
2022/09/18 06:14:29;;;;;;;3.80;0.73;;;;;;;10.28;90.99;98202.06;5043333;28;20076;-46
2022/09/18 06:17:15;;;;;;;0.80;0.22;;;;;;;10.15;79.67;98212.63;5027068;28;20091;-51
2022/09/18 06:20:00;;;;;;;0.47;0.30;;;;;;;9.67;80.73;98204.75;5045936;28;20135;-50
2022/09/18 06:22:45;;;;;;;0.57;0.20;;;;;;;9.77;80.09;98209.31;5049834;28;20086;-51
2022/09/18 06:25:33;;;;;;;1.60;0.20;;;;;;;9.77;80.33;98209.31;5072911;28;20560;-57
2022/09/18 06:28:21;;;;;;;2.28;0.50;;;;;;;9.72;79.61;98217.50;5035354;28;20473;-49
2022/09/18 06:31:06;;;;;;;0.77;0.40;;;;;;;9.68;78.86;98209.03;5056122;28;20139;-51
2022/09/18 06:34:14;;;;;;;0.75;0.20;;;;;;;9.69;77.90;98209.88;5015510;28;20045;-48
2022/09/18 06:37:02;;;;;;;2.25;0.45;;;;;;;9.97;76.12;98216.50;4991550;28;20073;-48
2022/09/18 06:40:12;;;;;;;1.07;0.30;;;;;;;9.95;74.71;98205.34;5020241;28;20116;-49
2022/09/18 06:43:27;;;;;;;2.70;0.38;;;;;;;10.23;75.01;98224.16;5000027;28;20069;-53
2022/09/18 06:46:31;;;;;;;2.58;0.30;;;;;;;10.25;73.33;98218.00;5003313;28;20061;-53
2022/09/18 06:49:26;;;;;;;2.58;0.50;;;;;;;10.26;72.78;98227.50;5010588;28;20066;-50
2022/09/18 06:52:11;;;;;;;3.15;0.50;;;;;;;10.29;72.18;98225.50;5001794;28;20681;-52
2022/09/18 06:54:57;;;;;;;0.70;0.30;;;;;;;10.31;71.30;98231.47;4991394;28;20124;-50
2022/09/18 06:57:55;;;;;;;0.43;0.13;;;;;;;10.42;71.21;98230.63;4992233;28;20398;-51
2022/09/18 07:00:40;;;;;;;0.82;0.10;;;;;;;10.88;69.77;98232.44;5009592;28;20125;-52
2022/09/18 07:03:25;;;;;;;1.45;0.20;;;;;;;11.28;67.00;98226.66;4991700;28;20180;-51
2022/09/18 07:06:28;;;;;;;1.50;0.20;;;;;;;11.70;65.08;98227.75;4995065;28;20915;-56
2022/09/18 07:09:13;;;;;;;1.05;0.30;;;;;;;11.88;65.23;98227.19;4998029;28;20038;-53
2022/09/18 07:12:18;;;;;;;0.55;0.10;;;;;;;11.47;66.81;98233.06;5049467;28;20094;-52
2022/09/18 07:15:09;;;;;;;1.25;0.20;;;;;;;11.17;68.57;98221.44;5043517;28;20385;-48
2022/09/18 07:18:02;;;;;;;0.80;0.40;;;;;;;10.95;69.67;98231.84;5044475;28;20048;-54
2022/09/18 07:20:47;;;;;;;2.50;0.32;;;;;;;10.74;70.98;98225.69;5040847;28;20076;-56
2022/09/18 07:23:41;;;;;;;1.58;0.25;;;;;;;10.42;73.77;98228.00;5030325;28;20056;-54
2022/09/18 07:26:26;;;;;;;1.15;0.20;;;;;;;10.61;74.62;98229.22;5047968;28;20052;-51
2022/09/18 07:29:11;;;;;;;0.57;0.28;;;;;;;10.48;75.80;98226.72;5048087;28;20060;-56
2022/09/18 07:31:55;;;;;;;0.50;0.20;;;;;;;10.58;75.99;98234.72;5055312;28;20103;-51
2022/09/18 07:34:41;;;;;;;3.15;0.10;;;;;;;10.50;76.47;98234.47;5047949;28;20116;-52
2022/09/18 07:37:29;;;;;;;1.48;0.20;;;;;;;10.76;74.46;98242.94;5048023;28;20090;-52
2022/09/18 07:40:28;;;;;;;1.38;0.50;;;;;;;10.93;74.03;98241.63;5046847;28;20131;-53
2022/09/18 07:43:25;;;;;;;1.65;0.50;;;;;;;11.34;73.96;98244.53;5063375;28;20094;-51
2022/09/18 07:46:11;;;;;;;1.55;0.20;;;;;;;11.21;72.39;98246.47;5032182;28;20079;-54
2022/09/18 07:48:57;;;;;;;1.75;0.28;;;;;;;11.51;72.60;98249.38;5032347;28;20387;-51
2022/09/18 07:51:46;;;;;;;0.80;0.20;;;;;;;11.74;71.76;98260.63;5044164;28;20385;-52
2022/09/18 07:54:32;;;;;;;1.35;0.20;;;;;;;11.25;71.33;98254.91;5040698;28;20128;-51
2022/09/18 07:57:21;;;;;;;1.00;0.20;;;;;;;11.13;71.89;98254.94;5052667;28;20065;-56
2022/09/18 08:00:19;;;;;;;1.10;0.28;;;;;;;11.95;69.42;98254.56;5032663;28;20057;-50
2022/09/18 08:03:13;;;;;;;3.00;0.30;;;;;;;12.37;66.01;98245.88;5051803;28;20510;-50
2022/09/18 08:06:19;;;;;;;0.80;0.28;;;;;;;12.94;63.77;98252.53;5038873;28;20068;-54
2022/09/18 08:09:30;;;;;;;1.33;0.30;;;;;;;13.39;62.82;98269.66;5042167;28;20069;-54
2022/09/18 08:12:28;;;;;;;0.65;0.20;;;;;;;12.98;61.84;98246.03;5045195;28;20053;-51
2022/09/18 08:15:41;;;;;;;0.63;0.20;;;;;;;13.63;61.44;98265.84;5020368;28;20128;-51
2022/09/18 08:18:54;;;;;;;1.50;0.30;;;;;;;13.40;61.10;98260.78;4973662;28;20041;-53
2022/09/18 08:22:08;;;;;;;1.00;0.30;;;;;;;14.01;58.47;98260.72;4967894;28;20147;-51
2022/09/18 08:24:59;;;;;;;0.70;0.28;;;;;;;13.89;58.93;98269.72;4958874;28;20162;-51
2022/09/18 08:27:44;;;;;;;0.22;0.05;;;;;;;13.82;58.38;98258.94;4959158;28;20451;-50
2022/09/18 08:30:29;;;;;;;1.58;0.20;;;;;;;13.67;59.13;98261.97;4955537;28;20093;-53
2022/09/18 08:33:17;;;;;;;0.68;0.20;;;;;;;13.42;59.60;98264.13;4970369;28;20137;-52
2022/09/18 08:36:02;;;;;;;1.55;0.10;;;;;;;13.26;58.16;98253.28;4961966;28;20072;-50
2022/09/18 08:38:54;;;;;;;1.50;0.30;;;;;;;13.05;58.65;98268.19;4959695;28;20046;-54
2022/09/18 08:42:03;;;;;;;1.60;0.20;;;;;;;12.93;57.32;98264.81;4973977;28;20137;-50
2022/09/18 08:44:59;;;;;;;0.75;0.22;;;;;;;13.05;56.89;98244.53;4969554;28;20043;-52
2022/09/18 08:47:53;;;;;;;1.02;0.35;;;;;;;13.04;56.27;98236.78;4980559;28;20061;-50
2022/09/18 08:50:43;;;;;;;1.17;0.20;;;;;;;13.29;57.02;98259.13;4958090;28;20126;-54
2022/09/18 08:53:39;;;;;;;0.85;0.20;;;;;;;13.99;55.07;98259.19;4959939;28;20046;-51
2022/09/18 08:56:54;;;;;;;;;;;;;;;14.50;52.91;98270.34;4988895;28;20044;-52
2022/09/18 09:00:29;;;;;;;0.40;0.10;;;;;;;15.42;50.95;98262.75;5031489;28;19944;-55
2022/09/18 09:04:05;;;;;;;1.15;0.40;;;;;;;15.54;49.37;98264.19;5043729;28;20128;-54
2022/09/18 09:07:19;;;;;;;1.02;0.20;;;;;;;14.12;53.11;98256.25;5046034;28;20044;-55
2022/09/18 09:10:16;;;;;;;2.22;0.25;;;;;;;14.29;52.81;98267.91;5053623;28;20064;-55
2022/09/18 09:13:21;;;;;;;1.10;0.40;;;;;;;15.39;49.44;98248.88;5055620;28;20033;-50
2022/09/18 09:16:15;;;;;;;1.55;0.22;;;;;;;15.56;48.91;98246.41;5055382;28;20048;-53
2022/09/18 09:19:08;;;;;;;1.98;0.17;;;;;;;15.83;46.28;98267.59;5043491;28;20063;-55
2022/09/18 09:22:20;;;;;;;6.72;0.43;;;;;;;16.35;45.06;98245.72;5020276;28;20045;-53
2022/09/18 09:25:34;;;;;;;0.82;0.15;;;;;;;14.79;49.41;98263.31;5076182;28;20037;-59
2022/09/18 09:28:51;;;;;;;2.58;0.30;;;;;;;14.90;50.18;98259.72;5056214;28;20228;-58
2022/09/18 09:32:10;;;;;;;0.20;0.10;;;;;;;14.66;50.24;98258.34;5047849;28;20083;-54
2022/09/18 09:35:24;;;;;;;2.17;0.28;;;;;;;15.86;45.56;98246.19;5047068;28;20051;-64
2022/09/18 09:38:41;;;;;;;2.40;0.20;;;;;;;15.54;46.87;98264.19;5043275;28;20063;-68
2022/09/18 09:41:29;;;;;;;0.30;0.20;;;;;;;16.08;45.15;98266.03;5049702;28;20053;-68
2022/09/18 09:44:19;;;;;;;1.85;0.20;;;;;;;16.32;43.61;98277.75;5025964;28;20059;-68
2022/09/18 09:47:20;;;;;;;;;;;;;;;16.27;43.44;98273.94;5061942;28;20118;-69
2022/09/18 09:50:32;;;;;;;1.63;0.20;;;;;;;16.35;42.37;98269.50;5051150;28;20011;-67
2022/09/18 09:53:18;;;;;;;0.75;0.20;;;;;;;16.08;42.72;98283.69;5001502;28;20061;-66
2022/09/18 09:56:39;;;;;;;6.13;0.25;;;;;;;16.84;41.92;98272.63;4993038;28;21367;-66
2022/09/18 09:59:39;;;;;;;1.30;0.15;;;;;;;15.18;45.63;98293.19;4928959;29;20127;-67
2022/09/18 10:02:39;;;;;;;0.30;0.10;;;;;;;16.14;43.76;98275.16;4931310;29;20070;-64
2022/09/18 10:05:42;;;;;;;2.38;0.25;;;;;;;17.21;41.18;98275.94;4916583;29;20200;-62
2022/09/18 10:08:36;;;;;;;0.40;0.20;;;;;;;17.06;41.69;98288.91;4888239;29;20048;-64
2022/09/18 10:11:24;;;;;;;1.00;0.20;;;;;;;17.03;40.40;98298.00;4872618;29;20119;-62
2022/09/18 10:14:19;;;;;;;0.60;0.10;;;;;;;17.30;39.27;98272.31;4903800;29;20052;-63
2022/09/18 10:17:05;;;;;;;0.43;0.10;;;;;;;16.67;40.86;98280.47;4894685;29;20682;-61
2022/09/18 10:19:52;;;;;;;0.35;0.17;;;;;;;16.63;42.07;98282.59;4898107;29;20036;-63
2022/09/18 10:22:38;;;;;;;1.48;0.25;;;;;;;16.93;41.61;98290.19;4895164;29;20072;-61
2022/09/18 10:25:48;;;;;;;0.25;0.10;;;;;;;17.85;39.72;98270.09;4893647;29;20190;-62
2022/09/18 10:28:34;;;;;;;0.32;0.10;;;;;;;16.08;43.48;98288.97;4880468;29;20388;-63
2022/09/18 10:31:21;;;;;;;1.25;0.15;;;;;;;16.17;43.14;98282.78;4958559;28;20062;-65
2022/09/18 10:34:38;;;;;;;0.85;0.20;;;;;;;15.66;47.18;98293.84;4974851;28;20305;-64
2022/09/18 10:37:29;;;;;;;1.02;0.13;;;;;;;15.86;48.36;98283.97;5046233;28;20033;-64
2022/09/18 10:40:28;;;;;;;1.05;0.10;;;;;;;16.54;47.32;98294.09;5045199;28;20160;-64
2022/09/18 10:43:17;;;;;;;0.85;0.20;;;;;;;16.94;46.74;98283.09;5064917;28;20071;-63
2022/09/18 10:46:05;;;;;;;0.95;0.10;;;;;;;17.54;46.82;98293.72;5031316;28;20400;-62
2022/09/18 10:49:01;;;;;;;0.47;0.13;;;;;;;17.13;47.82;98297.91;5045522;28;20044;-63
2022/09/18 10:51:46;;;;;;;0.40;0.10;;;;;;;17.69;45.34;98300.03;5046249;28;20044;-64
2022/09/18 10:54:31;;;;;;;0.73;0.20;;;;;;;17.73;44.85;98287.31;5022151;28;20055;-62
2022/09/18 10:57:30;;;;;;;1.17;0.13;;;;;;;17.97;43.84;98293.63;5031982;28;20049;-63
2022/09/18 11:00:20;;;;;;;2.55;0.15;;;;;;;17.18;45.49;98273.63;5052824;28;20037;-60
2022/09/18 11:03:20;;;;;;;0.57;0.13;;;;;;;17.01;45.70;98291.22;5037283;28;20048;-61
2022/09/18 11:06:13;;;;;;;0.32;0.20;;;;;;;17.42;44.01;98299.31;5032786;28;20045;-61
2022/09/18 11:09:01;;;;;;;3.50;0.30;;;;;;;18.09;45.19;98288.81;5052813;28;20036;-60
2022/09/18 11:11:50;;;;;;;1.02;0.10;;;;;;;17.67;44.56;98294.09;5041311;28;20226;-64
2022/09/18 11:14:45;;;;;;;1.60;0.20;;;;;;;17.03;46.22;98307.75;5040084;28;20130;-61
2022/09/18 11:17:45;;;;;;;0.52;0.10;;;;;;;18.20;44.99;98291.19;5043422;28;20137;-61
2022/09/18 11:20:41;;;;;;;0.40;0.20;;;;;;;17.39;46.48;98288.22;5042256;28;20048;-60
2022/09/18 11:23:30;;;;;;;0.20;0.10;;;;;;;16.52;47.67;98296.06;5044427;28;20175;-63
2022/09/18 11:26:28;;;;;;;0.52;0.10;;;;;;;17.90;45.02;98296.13;5047897;28;20080;-60
2022/09/18 11:29:31;;;;;;;1.08;0.10;;;;;;;16.18;48.31;98307.38;5047565;28;20037;-60
2022/09/18 11:32:25;;;;;;;0.38;0.03;;;;;;;16.47;49.04;98298.34;5029375;28;20049;-61
2022/09/18 11:35:18;;;;;;;1.63;0.10;;;;;;;17.21;46.74;98318.28;5042907;28;20903;-63
2022/09/18 11:38:06;;;;;;;1.45;0.30;;;;;;;17.82;45.43;98291.63;5031952;28;20496;-63
2022/09/18 11:40:56;;;;;;;1.52;0.03;;;;;;;17.19;45.94;98302.56;5033358;28;20518;-61
2022/09/18 11:43:59;;;;;;;1.55;0.10;;;;;;;16.39;46.68;98296.47;5028638;28;20373;-68
2022/09/18 11:47:05;;;;;;;0.25;0.10;;;;;;;15.27;50.60;98314.22;5035005;28;20400;-72
2022/09/18 11:50:06;;;;;;;2.92;0.28;;;;;;;13.57;63.63;98334.81;5059360;28;20033;-58
2022/09/18 11:53:02;;;;;;;0.57;0.22;;;;;;;12.43;72.05;98318.09;5050651;28;20053;-49
2022/09/18 11:56:01;;;;;;;0.30;0.10;;;;;;;13.22;72.04;98329.00;5047685;28;20033;-56
2022/09/18 11:58:54;;;;;;;0.60;0.28;;;;;;;12.57;73.74;98333.53;5054399;28;20093;-60
2022/09/18 12:01:44;;;;;;;0.40;0.10;;;;;;;11.84;76.15;98334.19;5039076;28;20048;-60
2022/09/18 12:04:40;;;;;;;0.40;0.10;;;;;;;11.38;79.53;98331.66;5043677;28;20065;-61
2022/09/18 12:07:50;;;;;;;0.20;0.10;;;;;;;12.47;82.50;98344.97;5050430;28;20144;-62
2022/09/18 12:10:49;;;;;;;0.80;0.10;;;;;;;13.54;74.81;98335.09;5062468;28;20061;-60
2022/09/18 12:13:53;;;;;;;0.57;0.10;;;;;;;14.96;67.83;98347.94;5051065;28;20073;-60
2022/09/18 12:16:56;;;;;;;1.80;0.15;;;;;;;13.77;71.03;98345.38;5059450;28;20073;-60
2022/09/18 12:19:51;;;;;;;0.30;0.20;;;;;;;13.14;75.80;98365.63;5044026;28;20669;-59
2022/09/18 12:23:01;;;;;;;0.00;0.00;;;;;;;11.81;78.79;98371.19;5049766;28;20499;-57
2022/09/18 12:25:48;;;;;;;0.38;0.10;;;;;;;11.64;81.92;98391.72;5049473;28;20543;-61
2022/09/18 12:29:16;;;;;;;0.40;0.13;;;;;;;11.07;81.29;98379.47;5047466;28;20041;-60
2022/09/18 12:32:19;;;;;;;0.10;0.03;;;;;;;10.79;81.85;98357.97;5047263;28;20044;-62
2022/09/18 12:35:34;;;;;;;1.17;0.20;;;;;;;11.46;80.43;98352.03;5043145;28;20504;-62
2022/09/18 12:38:38;;;;;;;0.22;0.10;;;;;;;13.31;73.39;98345.78;5039804;28;20041;-63
2022/09/18 12:41:44;;;;;;;0.32;0.10;;;;;;;14.43;69.07;98327.22;5046841;28;20053;-58
2022/09/18 12:44:51;;;;;;;0.22;0.10;;;;;;;15.06;68.28;98321.53;5045031;28;20090;-62
2022/09/18 12:48:00;;;;;;;1.80;0.15;;;;;;;15.30;63.89;98318.38;5044843;28;20084;-64
2022/09/18 12:50:57;;;;;;;0.63;0.00;;;;;;;15.10;61.95;98297.34;5042000;28;20069;-64
2022/09/18 12:53:41;;;;;;;0.25;0.10;;;;;;;15.39;60.69;98303.47;5040904;28;20131;-66
2022/09/18 12:57:05;;;;;;;1.55;0.10;;;;;;;15.26;62.23;98314.34;5049904;28;20118;-65
2022/09/18 12:59:58;;;;;;;0.77;0.30;;;;;;;16.03;59.10;98300.00;5042749;28;20048;-67
2022/09/18 13:02:55;;;;;;;0.17;0.08;;;;;;;15.49;59.40;98316.59;5047677;28;20116;-66
2022/09/18 13:05:47;;;;;;;0.30;0.00;;;;;;;16.03;56.15;98321.13;5053120;28;20503;-64
2022/09/18 13:08:55;;;;;;;0.35;0.03;;;;;;;16.13;54.74;98315.75;5043186;28;20141;-66
2022/09/18 13:11:49;;;;;;;0.57;0.10;;;;;;;16.22;55.10;98317.47;5043055;28;20430;-65
2022/09/18 13:14:44;;;;;;;0.13;0.00;;;;;;;15.83;54.69;98325.72;5048613;28;20041;-65
2022/09/18 13:17:37;;;;;;;1.95;0.05;;;;;;;14.24;59.11;98321.00;5045318;28;20388;-65
2022/09/18 13:20:36;;;;;;;0.63;0.10;;;;;;;14.00;60.47;98337.22;5043786;28;20074;-65
2022/09/18 13:23:25;;;;;;;0.57;0.10;;;;;;;13.54;61.96;98356.97;5046159;28;20169;-66
2022/09/18 13:26:13;;;;;;;0.10;0.03;;;;;;;12.91;64.50;98356.13;5040297;28;20045;-66
2022/09/18 13:28:59;;;;;;;0.35;0.10;;;;;;;12.69;67.19;98373.72;5043435;28;20117;-65
2022/09/18 13:31:52;;;;;;;1.25;0.20;;;;;;;12.42;76.41;98408.38;5035312;28;20120;-58
2022/09/18 13:34:38;;;;;;;3.15;0.20;;;;;;;11.16;82.71;98427.72;5047050;28;20052;-57
2022/09/18 13:37:24;;;;;;;0.47;0.20;;;;;;;10.02;93.58;98438.59;5055624;28;20048;-56
2022/09/18 13:40:54;;;;;;;0.93;0.15;;;;;;;9.79;95.21;98419.31;5068406;28;20147;-55
2022/09/18 13:43:42;;;;;;;4.10;0.40;;;;;;;9.30;99.54;98411.34;5037643;28;20867;-60
2022/09/18 13:46:39;;;;;;;0.90;0.45;;;;;;;9.33;100.00;98422.44;5038509;28;20095;-57